Latest Coastal Weather Observations for Flinders Island Airport

IDV60701

Issued at 5:32 pm EST Monday 24 April 2017 (issued every 10 minutes, with the page automatically refreshed every 10 minutes)

About coastal observations | Map of coastal stations | Coastal observations for VIC | Marine services | Other Formats
Station Details ID: 099005 Name: FLINDERS ISLAND AIRPORT Lat: -40.09 Lon: 148.00 Height: 9.0 m
Data from the previous 72 hours. | See also: Recent months at Flinders Island Airport
Date/Time
EST
Temp
°C
Wind Pressure Rain since
9am
mm
Weather Cloud Vis
km
Sea
Height
m
Swell
Dir  Spd
kts
Gust
kts
hPa Trend Height
m
Period
s
Dir
24/05:30pm 17.2 CALM 0 0 1015.3 - 0.0 - Partly cloudy 10 - - - -
24/05:00pm 17.9 WNW 4 5 1015.3 - 0.0 - Partly cloudy 10 - - - -
24/04:30pm 18.2 SW 5 6 1015.5 - 0.0 - Partly cloudy 10 - - - -
24/04:00pm 18.5 SSW 5 6 1015.5 - 0.0 - Partly cloudy 10 - - - -
24/03:30pm 18.9 SW 6 7 1015.7 - 0.0 - Partly cloudy 10 - - - -
24/03:00pm 19.5 SW 6 7 1015.8 - 0.0 - Mostly clear 10 - - - -
24/02:30pm 19.7 SW 6 7 1016.0 - 0.0 - - 10 - - - -
24/02:00pm 20.0 WSW 6 7 1016.0 - 0.0 - - 10 - - - -
24/01:30pm 20.5 WSW 7 8 1016.4 - 0.0 - Partly cloudy 10 - - - -
24/01:00pm 21.7 SW 5 6 1016.8 - 0.0 - Partly cloudy 10 - - - -
24/12:30pm 20.0 SW 5 6 1017.6 - 0.0 - - 10 - - - -
24/12:00pm 19.7 SW 6 7 1018.2 - 0.0 - Partly cloudy 10 - - - -
24/11:30am 19.6 SSW 7 8 1018.7 - 0.0 - Partly cloudy 10 - - - -
24/11:00am 19.6 SSE 4 6 1019.2 - 0.0 - Partly cloudy 10 - - - -
24/10:51am 19.7 ESE 4 6 1019.3 - 0.0 - Partly cloudy 10 - - - -
24/10:30am 19.1 SE 6 9 1019.5 - 0.0 - Partly cloudy 10 - - - -
24/10:27am 19.0 SE 6 9 1019.5 - 0.0 - Partly cloudy 10 - - - -
24/10:26am 19.0 SE 6 9 1019.5 - 0.0 - Partly cloudy 10 - - - -
24/10:11am 19.3 E 4 8 1019.6 - 0.0 - Partly cloudy 10 - - - -
24/10:00am 19.4 E 5 7 1019.7 - 0.0 - Partly cloudy 10 - - - -
24/09:30am 18.5 E 5 7 1020.1 - 0.0 - Cloudy 10 - - - -
24/09:00am 18.1 ESE 5 6 1020.3 - 0.0 - Cloudy 10 - - - -
24/08:30am 17.7 E 6 9 1020.7 - 0.0 - Cloudy 10 - - - -
24/08:00am 17.2 E 6 7 1020.7 - 0.0 - Partly cloudy 10 - - - -
24/07:30am 16.8 E 5 7 1020.7 - 0.0 - Partly cloudy 10 - - - -
24/07:00am 16.4 E 5 6 1020.6 - 0.0 - Partly cloudy 10 - - - -
24/06:30am 16.3 NE 5 8 1020.6 - 0.0 - Partly cloudy 10 - - - -
24/06:00am 16.1 E 6 8 1020.6 - 0.0 - Mostly cloudy 10 - - - -
24/05:30am 15.6 E 6 9 1020.7 - 0.0 - Partly cloudy 10 - - - -
24/05:00am 15.6 ENE 3 6 1020.7 - 0.0 - - 10 - - - -
24/04:30am 16.4 E 6 8 1020.7 - 0.0 - Partly cloudy 10 - - - -
24/04:00am 16.4 ESE 6 8 1020.9 - 0.0 - Partly cloudy 10 - - - -
24/03:30am 16.4 E 5 7 1021.0 - 0.0 - Partly cloudy 10 - - - -
24/03:00am 16.4 E 6 8 1021.1 - 0.0 - Cloudy 10 - - - -
24/02:30am 16.4 E 7 9 1021.4 - 0.0 - Partly cloudy 10 - - - -
24/02:00am 16.2 E 6 9 1021.7 - 0.0 - Partly cloudy 10 - - - -
24/01:30am 15.9 E 5 8 1021.9 - 0.0 - Partly cloudy 10 - - - -
24/01:00am 16.3 E 7 10 1022.1 - 0.0 - Partly cloudy 10 - - - -
24/12:30am 16.5 ESE 7 13 1022.4 - 0.0 - Cloudy 10 - - - -
24/12:00am 16.4 ESE 6 10 1022.7 - 0.0 - Cloudy 10 - - - -
 
Date/Time
EST
Temp
°C
Wind Pressure Rain since
9am
mm
Weather Cloud Vis
km
Sea
Height
m
Swell
Dir  Spd
kts
Gust
kts
hPa Trend Height
m
Period
s
Dir
23/11:30pm 16.5 ESE 7 12 1023.0 - 0.0 - Partly cloudy 10 - - - -
23/11:00pm 16.5 E 7 10 1023.2 - 0.0 - Cloudy 10 - - - -
23/10:30pm 16.5 E 8 12 1023.3 - 0.0 - Partly cloudy 10 - - - -
23/10:00pm 16.2 E 8 15 1023.6 - 0.0 - Partly cloudy 10 - - - -
23/09:30pm 16.2 ESE 7 10 1023.7 - 0.0 - Cloudy 10 - - - -
23/09:00pm 16.2 ESE 7 11 1023.6 - 0.0 - Cloudy 10 - - - -
23/08:30pm 16.2 E 7 10 1023.7 - 0.0 - Partly cloudy 10 - - - -
23/08:00pm 16.2 E 7 12 1023.8 - 0.0 - Partly cloudy 10 - - - -
23/07:54pm 16.2 ESE 7 12 1023.7 - 0.0 - Partly cloudy 10 - - - -
23/07:30pm 16.2 E 9 15 1023.7 - 0.0 - Cloudy 10 - - - -
23/07:00pm 16.2 E 7 10 1023.6 - 0.0 - Cloudy 10 - - - -
23/06:38pm 16.2 E 5 8 1023.4 - 0.0 - Partly cloudy 10 - - - -
23/06:30pm 16.1 ESE 5 9 1023.3 - 0.0 - Partly cloudy 10 - - - -
23/06:00pm 16.0 E 6 9 1023.1 - 0.0 - Cloudy 10 - - - -
23/05:30pm 16.3 ESE 7 13 1023.0 - 0.0 - Partly cloudy 10 - - - -
23/05:00pm 16.6 ESE 7 13 1022.7 - 0.0 - Partly cloudy 10 - - - -
23/04:30pm 17.1 ESE 9 15 1022.4 - 0.0 - Partly cloudy 10 - - - -
23/04:00pm 17.2 ESE 9 14 1022.6 - 0.0 - Partly cloudy 10 - - - -
23/03:30pm 17.5 ESE 9 15 1022.7 - 0.0 - Partly cloudy 10 - - - -
23/03:00pm 17.9 ESE 7 13 1022.5 - 0.0 - Cloudy 10 - - - -
23/02:30pm 18.2 ESE 8 13 1022.5 - 0.0 - Partly cloudy 10 - - - -
23/02:00pm 19.0 ESE 9 14 1022.4 - 0.0 - Partly cloudy 10 - - - -
23/01:30pm 19.2 ESE 8 14 1022.5 - 0.0 - Partly cloudy 10 - - - -
23/01:00pm 19.4 ESE 9 15 1022.5 - 0.0 - Partly cloudy 10 - - - -
23/12:30pm 19.2 ESE 7 13 1022.7 - 0.0 - Partly cloudy 10 - - - -
23/12:00pm 19.7 ESE 7 10 1023.1 - 0.0 - Cloudy 10 - - - -
23/11:30am 20.0 ESE 6 10 1023.4 - 0.0 - Partly cloudy 10 - - - -
23/11:00am 19.2 E 8 12 1023.9 - 0.0 - Cloudy 10 - - - -
23/10:30am 18.7 ESE 7 10 1024.0 - 0.0 - Partly cloudy 10 - - - -
23/10:00am 18.6 ESE 7 10 1024.1 - 0.0 - Partly cloudy 10 - - - -
23/09:30am 18.3 E 7 9 1024.1 - 0.0 - Partly cloudy 10 - - - -
23/09:00am 17.6 E 7 11 1024.1 - 0.0 - - 10 - - - -
23/08:30am 17.7 E 6 10 1024.1 - 0.0 - - 10 - - - -
23/08:00am 15.3 ENE 6 7 1024.0 - 0.0 - Partly cloudy 10 - - - -
23/07:30am 12.9 ENE 6 7 1023.9 - 0.0 - Partly cloudy 10 - - - -
23/07:05am 12.5 ENE 6 7 1023.6 - 0.0 - Partly cloudy 10 - - - -
23/07:00am 12.5 ENE 6 7 1023.5 - 0.0 - Partly cloudy 7 - - - -
23/06:54am 13.2 ENE 6 6 1023.5 - 0.0 - Partly cloudy 5 - - - -
23/06:51am 12.8 ENE 5 6 1023.5 - 0.0 - Partly cloudy 6 - - - -
23/06:30am 12.0 ENE 5 6 1023.3 - 0.0 - - 6 - - - -
23/06:17am 12.5 NE 5 5 1023.2 - 0.0 - - 5 - - - -
23/06:00am 12.7 NE 5 5 1023.1 - 0.0 - Mostly clear 9 - - - -
23/05:30am 13.1 ENE 5 6 1023.1 - 0.0 - Partly cloudy 10 - - - -
23/05:16am 13.2 ENE 5 6 1023.0 - 0.0 - Partly cloudy 10 - - - -
23/05:04am 13.3 ENE 5 6 1022.9 - 0.0 - Partly cloudy 10 - - - -
23/05:00am 13.3 ENE 5 6 1022.8 - 0.0 - Partly cloudy 10 - - - -
23/04:30am 13.3 NE 4 5 1022.7 - 0.0 - Partly cloudy 9 - - - -
23/04:23am 13.3 NE 4 5 1022.7 - 0.0 - Partly cloudy 9 - - - -
23/04:07am 13.1 NE 5 5 1022.6 - 0.0 - Partly cloudy 4 - - - -
23/04:00am 12.7 NE 4 5 1022.6 - 0.0 - Partly cloudy 2 - - - -
23/03:51am 13.1 NE 4 5 1022.5 - 0.0 - Partly cloudy 5 - - - -
23/03:34am 13.4 ENE 4 5 1022.5 - 0.0 - Partly cloudy 10 - - - -
23/03:30am 13.5 ENE 5 5 1022.5 - 0.0 - Partly cloudy 10 - - - -
23/03:09am 14.1 NE 6 7 1022.7 - 0.0 - Partly cloudy 10 - - - -
23/03:00am 14.0 NE 6 7 1022.7 - 0.0 - Cloudy 10 - - - -
23/02:30am 13.8 NE 6 7 1022.7 - 0.0 - Cloudy 10 - - - -
23/02:00am 13.2 ENE 5 5 1022.9 - 0.0 - Partly cloudy 10 - - - -
23/01:30am 13.7 NE 4 5 1023.0 - 0.0 - Partly cloudy 10 - - - -
23/01:21am 13.7 NE 4 5 1023.0 - 0.0 - Partly cloudy 10 - - - -
23/01:17am 13.8 NE 4 5 1023.0 - 0.0 - Partly cloudy 10 - - - -
23/01:00am 13.9 NE 4 5 1022.9 - 0.0 - Partly cloudy 4 - - - -
23/12:41am 13.2 ENE 4 5 1022.9 - 0.0 - Partly cloudy 3 - - - -
23/12:30am 13.0 ENE 5 5 1023.0 - 0.0 - Partly cloudy 2 - - - -
23/12:20am 13.2 ENE 5 5 1023.1 - 0.0 - Partly cloudy 5 - - - -
23/12:00am 13.8 ENE 4 5 1023.1 - 0.0 - Cloudy 10 - - - -
 
Date/Time
EST
Temp
°C
Wind Pressure Rain since
9am
mm
Weather Cloud Vis
km
Sea
Height
m
Swell
Dir  Spd
kts
Gust
kts
hPa Trend Height
m
Period
s
Dir
22/11:30pm 14.2 NE 3 5 1023.2 - 0.0 - Cloudy 10 - - - -
22/11:00pm 14.5 NNW 3 4 1023.1 - 0.0 - - 10 - - - -
22/10:30pm 14.7 NNW 4 5 1023.1 - 0.0 - - 10 - - - -
22/10:00pm 14.6 CALM 0 0 1023.1 - 0.0 - - 8 - - - -
22/09:30pm 15.2 CALM 0 3 1023.2 - 0.0 - - 10 - - - -
22/09:00pm 15.5 ENE 3 4 1023.1 - 0.0 - Cloudy 10 - - - -
22/08:30pm 15.8 NE 5 5 1022.8 - 0.0 - Partly cloudy 10 - - - -
22/08:00pm 17.1 N 3 4 1022.8 - 0.0 - Cloudy 10 - - - -
22/07:30pm 17.0 NNW 5 6 1022.6 - 0.0 - Cloudy 10 - - - -
22/07:00pm 17.2 N 4 5 1022.6 - 0.0 - Partly cloudy 10 - - - -
22/06:30pm 17.3 N 3 4 1022.4 - 0.0 - Cloudy 10 - - - -
22/06:00pm 17.7 NW 4 5 1022.3 - 0.0 - Cloudy 10 - - - -
22/05:30pm 18.0 NW 5 6 1022.3 - 0.0 - Cloudy 10 - - - -
22/05:00pm 18.2 WNW 5 6 1022.2 - 0.0 - Cloudy 10 - - - -
22/04:30pm 18.4 WNW 7 9 1022.0 - 0.0 - Cloudy 10 - - - -
22/04:00pm 18.8 WNW 7 9 1021.7 - 0.0 - Partly cloudy 10 - - - -
22/03:30pm 19.2 NW 7 8 1021.6 - 0.0 - Partly cloudy 10 - - - -
22/03:00pm 19.1 WNW 6 8 1021.6 - 0.0 - Cloudy 10 - - - -
22/02:30pm 19.4 WNW 6 8 1021.5 - 0.0 - Cloudy 10 - - - -
22/02:00pm 18.6 WNW 8 9 1021.6 - 0.0 - Cloudy 10 - - - -
22/01:30pm 18.8 WNW 8 10 1021.6 - 0.0 - Cloudy 10 - - - -
22/01:00pm 18.6 WSW 7 8 1021.8 - 0.0 - Cloudy 10 - - - -
22/12:30pm 18.9 SW 5 6 1022.0 - 0.0 - Cloudy 10 - - - -
22/12:00pm 19.7 SSW 3 5 1022.2 - 0.0 - Cloudy 10 - - - -
22/11:30am 19.2 SSW 5 5 1022.4 - 0.0 - Partly cloudy 10 - - - -
22/11:00am 18.8 SSW 4 6 1022.7 - 0.0 - Partly cloudy 10 - - - -
22/10:30am 18.5 WSW 4 5 1023.0 - 0.0 - Partly cloudy 10 - - - -
22/10:00am 18.4 WSW 5 6 1022.9 - 0.0 - Partly cloudy 10 - - - -
22/09:30am 18.2 W 5 6 1023.0 - 0.0 - Partly cloudy 10 - - - -
22/09:00am 18.3 W 3 5 1023.0 - 0.0 - Cloudy 10 - - - -
22/08:30am 17.2 CALM 0 2 1022.9 - 0.0 - Partly cloudy 10 - - - -
22/08:00am 16.1 NE 3 5 1022.8 - 0.0 - Cloudy 10 - - - -
22/07:30am 15.6 ENE 5 6 1022.5 - 0.0 - Partly cloudy 10 - - - -
22/07:00am 15.1 NE 5 6 1022.4 - 0.0 - Partly cloudy 10 - - - -
22/06:30am 15.2 ENE 5 6 1022.2 - 0.0 - Partly cloudy 10 - - - -
22/06:00am 16.9 NNW 5 7 1022.1 - 0.0 - Cloudy 10 - - - -
22/05:30am 16.9 NNW 6 8 1021.9 - 0.0 - - 10 - - - -
22/05:00am 17.0 NW 7 8 1021.7 - 0.0 - - 10 - - - -
22/04:30am 17.0 NW 7 8 1021.6 - 0.0 - - 10 - - - -
22/04:00am 17.2 NW 8 9 1021.5 - 0.0 - - 10 - - - -
22/03:30am 17.7 NNW 6 8 1021.5 - 0.0 - Partly cloudy 10 - - - -
22/03:00am 17.5 NNW 5 7 1021.7 - 0.0 - Mostly cloudy 10 - - - -
22/02:30am 17.7 NE 3 4 1021.8 - 0.0 - Partly cloudy 10 - - - -
22/02:00am 18.0 NE 4 6 1021.7 - 0.0 - Cloudy 10 - - - -
22/01:30am 18.3 NNE 7 8 1021.8 - 0.0 - Cloudy 10 - - - -
22/01:00am 18.6 NE 8 10 1022.0 - 0.0 - Cloudy 10 - - - -
22/12:30am 18.9 NNE 7 9 1022.0 - 0.0 - Cloudy 10 - - - -
22/12:00am 18.7 NNE 6 7 1022.0 - 0.0 - Cloudy 10 - - - -
 
Date/Time
EST
Temp
°C
Wind Pressure Rain since
9am
mm
Weather Cloud Vis
km
Sea
Height
m
Swell
Dir  Spd
kts
Gust
kts
hPa Trend Height
m
Period
s
Dir
21/11:30pm 19.3 NNE 10 14 1022.3 - 0.0 - Cloudy 10 - - - -
21/11:00pm 19.5 NNE 11 14 1022.4 - 0.0 - Cloudy 10 - - - -
21/10:30pm 19.5 NNE 11 14 1022.4 - 0.0 - Cloudy 10 - - - -
21/10:00pm 19.0 NE 10 14 1022.5 - 0.0 - Cloudy 10 - - - -
21/09:30pm 17.5 NE 6 7 1022.6 - 0.0 - Cloudy 10 - - - -
21/09:00pm 16.7 ESE 3 5 1022.6 - 0.0 - Mostly cloudy 10 - - - -
21/08:30pm 16.7 SSE 5 5 1022.4 - 0.0 - Partly cloudy 10 - - - -
21/08:00pm 16.9 SE 5 5 1022.4 - 0.0 - Partly cloudy 10 - - - -
21/07:30pm 17.3 ENE 5 8 1022.4 - 0.0 - - 10 - - - -
21/07:00pm 16.3 ENE 1 4 1022.1 - 0.0 - - 10 - - - -
21/06:30pm 16.9 NE 5 7 1021.8 - 0.0 - - 10 - - - -
21/06:00pm 17.6 E 4 7 1021.7 - 0.0 - Mostly clear 10 - - - -

Other Formats:

Comma delimited format used in spreadsheet applications
http://www.bom.gov.au/fwo/IDV60701/IDV60701.94980.axf

JavaScript Object Notation format (JSON) in row-major order
http://www.bom.gov.au/fwo/IDV60701/IDV60701.94980.json